Arethusa — 9HJR9 — position and weather

sailwx.info

Track history (hours):
 
Tides and Currents Weather Stations Pressure Air Temp Water Temp Dewpoint Dewpoint Depression Visibility Wind Speed Wind Dir Waves Ship Positions

Arethusa

Last reported at 2015-May-28 13:32 UTC. Time now 2015-May-28 14:07 UTC.
Position N 44°03' E 009°51'.

Length 60 m; draft 3 m.

Type: Passenger vessel. MMSI: 249069000.

Date/timePositionNaut miles runAvg speedWind from/ knotsBaromVisibWave heightAir tempDewpointWater temp
2015-May-28 13:32N 44°03' E 009°51'0 0.0
2015-May-28 12:32N 44°03' E 009°51'0 0.0
2015-May-28 11:32N 44°03' E 009°51'0 0.0
2015-May-28 10:33N 44°03' E 009°51'0 0.0
2015-May-28 09:33N 44°03' E 009°51'0 0.0
2015-May-28 08:33N 44°03' E 009°51'0 0.0
2015-May-28 07:33N 44°03' E 009°51'0 0.0
2015-May-28 06:33N 44°03' E 009°51'0 0.0
2015-May-28 05:33N 44°03' E 009°51'0 0.0
2015-May-28 04:33N 44°03' E 009°51'0 0.0
2015-May-28 03:33N 44°03' E 009°51'0 0.0
2015-May-28 02:33N 44°03' E 009°51'0 0.0
2015-May-28 01:33N 44°03' E 009°51'0 0.0
2015-May-28 00:33N 44°03' E 009°51'0 0.0
2015-May-27 23:33N 44°03' E 009°51'0 0.0
2015-May-27 22:33N 44°03' E 009°51'0 0.0
2015-May-27 21:33N 44°03' E 009°51'4 3.6
2015-May-27 20:33N 43°60' E 009°53'10 9.9
2015-May-27 19:33N 44°03' E 009°40'1110.8
2015-May-27 18:33N 44°10' E 009°29'1010.4
2015-May-27 17:33N 44°17' E 009°18'2 0.1
2015-May-27 01:33N 44°16' E 009°16'10 9.8
2015-May-27 00:33N 44°11' E 009°04'10 9.6
2015-May-26 23:33N 44°07' E 008°52'9 9.4
2015-May-26 22:33N 44°02' E 008°40'14 9.5
2015-May-26 21:06N 43°56' E 008°24'6 9.5
2015-May-26 20:28N 43°53' E 008°16'1011.0
2015-May-26 19:33N 43°48' E 008°04'3411.4
2015-May-26 16:32N 43°41' E 007°17'1 0.0
2015-May-25 07:26N 43°42' E 007°17'0 0.0
2015-May-24 05:33N 43°42' E 007°17'75 9.4
2015-May-23 21:33N 44°08' E 008°55'1010.0
2015-May-23 20:33N 44°12' E 009°08'11 0.7
2015-May-23 04:34N 44°14' E 009°22'8 8.2
2015-May-23 03:34N 44°09' E 009°30'9 8.8
2015-May-23 02:34N 44°03' E 009°40'9 9.1
2015-May-23 01:33N 44°01' E 009°52'2 2.4
2015-May-23 00:32N 44°03' E 009°51'0 0.0
2015-May-22 23:33N 44°03' E 009°51'0 0.0
2015-May-22 22:33N 44°03' E 009°51'0 0.0
2015-May-22 21:33N 44°03' E 009°51'0 0.0
2015-May-22 20:33N 44°03' E 009°51'0 0.0
2015-May-22 19:33N 44°03' E 009°51'0 0.0
2015-May-22 18:33N 44°03' E 009°51'0 0.0
2015-May-22 17:34N 44°03' E 009°51'0 0.0
2015-May-22 16:33N 44°03' E 009°51'0 0.0
2015-May-22 15:33N 44°03' E 009°51'0 0.0
2015-May-22 14:33N 44°03' E 009°51'0 0.0
2015-May-22 13:33N 44°03' E 009°51'0 0.0
2015-May-22 12:33N 44°03' E 009°51'0 0.0
2015-May-22 11:33N 44°03' E 009°51'0 0.0
2015-May-22 10:33N 44°03' E 009°51'0 0.0
2015-May-22 09:33N 44°03' E 009°51'0 0.0
2015-May-22 08:33N 44°03' E 009°51'0 0.0
2015-May-22 07:33N 44°03' E 009°51'0 0.0
2015-May-22 06:33N 44°03' E 009°51'0 0.0
2015-May-22 05:33N 44°03' E 009°51'0 0.0
2015-May-22 04:33N 44°03' E 009°51'0 0.0
2015-May-22 03:33N 44°03' E 009°51'0 0.0
2015-May-22 02:33N 44°03' E 009°51'0 0.0
2015-May-22 01:33N 44°03' E 009°51'0 0.0
2015-May-22 00:33N 44°03' E 009°51'0 0.0
2015-May-21 23:33N 44°03' E 009°51'0 0.0
2015-May-21 22:33N 44°03' E 009°51'0 0.0
2015-May-21 21:33N 44°03' E 009°51'0 0.0
2015-May-21 20:33N 44°03' E 009°51'0 0.0
2015-May-21 19:33N 44°03' E 009°51'0 0.0
2015-May-21 18:33N 44°03' E 009°51'0 0.0
2015-May-21 17:33N 44°03' E 009°51'0 0.1
2015-May-21 16:33N 44°03' E 009°51'0 0.0
2015-May-21 15:34N 44°03' E 009°51'0 0.0
2015-May-21 14:33N 44°03' E 009°51'0 0.0
2015-May-21 13:33N 44°03' E 009°51'0 0.1
2015-May-21 12:33N 44°03' E 009°51'8 7.9
2015-May-21 11:32N 44°02' E 010°02'0 0.0
2015-May-21 10:32N 44°02' E 010°02'0 0.0
2015-May-21 09:32N 44°02' E 010°02'0 0.0
2015-May-21 08:33N 44°02' E 010°02'0 0.0
2015-May-21 07:33N 44°02' E 010°02'0 0.0
2015-May-21 06:33N 44°02' E 010°02'0 0.0
2015-May-21 05:33N 44°02' E 010°02'0 0.0
2015-May-21 04:33N 44°02' E 010°02'0 0.0
2015-May-21 03:33N 44°02' E 010°02'0 0.0
2015-May-21 02:33N 44°02' E 010°02'0 0.0
2015-May-21 01:33N 44°02' E 010°02'0 0.0
2015-May-21 00:33N 44°02' E 010°02'0 0.0
2015-May-20 23:33N 44°02' E 010°02'0 0.0
2015-May-20 22:33N 44°02' E 010°02'0 0.0
2015-May-20 21:33N 44°02' E 010°02'0 0.0
2015-May-20 20:33N 44°02' E 010°02'0 0.0
2015-May-20 19:33N 44°02' E 010°02'0 0.0
2015-May-20 18:33N 44°02' E 010°02'0 0.0
2015-May-20 17:33N 44°02' E 010°02'0 0.0
2015-May-20 16:33N 44°02' E 010°02'0 0.0
2015-May-20 15:33N 44°02' E 010°02'0 0.0
2015-May-20 14:33N 44°02' E 010°02'0 0.0
2015-May-20 13:33N 44°02' E 010°02'0 0.0
2015-May-20 12:33N 44°02' E 010°02'0 0.0
2015-May-20 11:33N 44°02' E 010°02'0 0.0
2015-May-20 10:33N 44°02' E 010°02'0 0.0
2015-May-20 09:33N 44°02' E 010°02'0 0.0
2015-May-20 08:33N 44°02' E 010°02'0 0.0
2015-May-20 07:33N 44°02' E 010°02'0 0.0
2015-May-20 06:32N 44°02' E 010°02'0 0.0
2015-May-20 05:33N 44°02' E 010°02'0 0.0
2015-May-20 04:33N 44°02' E 010°02'0 0.0
2015-May-20 03:32N 44°02' E 010°02'0 0.0
2015-May-20 02:28N 44°02' E 010°02'0 0.0
2015-May-20 01:32N 44°02' E 010°02'0 0.0
2015-May-20 00:33N 44°02' E 010°02'0 0.0
2015-May-19 23:33N 44°02' E 010°02'0 0.0
2015-May-19 22:33N 44°02' E 010°02'0 0.0
2015-May-19 21:33N 44°02' E 010°02'10 9.5
2015-May-19 20:33N 43°53' E 010°04'1111.3
2015-May-19 19:33N 43°41' E 010°05'1111.1
2015-May-19 18:33N 43°30' E 010°07'43 2.9
2015-May-19 03:27N 42°48' E 010°20'0 0.0
2015-May-19 02:30N 42°48' E 010°20'0 0.0
2015-May-19 01:31N 42°48' E 010°20'0 0.0
2015-May-19 00:33N 42°48' E 010°20'0 0.0
2015-May-18 23:32N 42°48' E 010°20'0 0.0
2015-May-18 22:19N 42°48' E 010°20'0 0.0
2015-May-18 21:30N 42°48' E 010°20'0 0.0
2015-May-18 20:33N 42°48' E 010°20'9 9.1
2015-May-18 19:33N 42°57' E 010°19'1010.2
2015-May-18 18:33N 43°07' E 010°17'1010.1
2015-May-18 17:33N 43°17' E 010°15'1010.1
2015-May-18 16:33N 43°27' E 010°14'6 6.3
2015-May-18 15:33N 43°33' E 010°18'0 0.0
2015-May-18 14:27N 43°33' E 010°18'  
Track history (hours):
 
Tides and Currents Weather Stations Pressure Air Temp Water Temp Dewpoint Dewpoint Depression Visibility Wind Speed Wind Dir Waves Ship Positions

Arethusa

Last reported at 2015-May-28 13:32 UTC. Time now 2015-May-28 14:07 UTC.
Position N 44°03' E 009°51'.

Length 60 m; draft 3 m.

Type: Passenger vessel. MMSI: 249069000.

Date/timePositionNaut miles runAvg speedWind from/ knotsBaromVisibWave heightAir tempDewpointWater temp
2015-May-28 13:32N 44°03' E 009°51'0 0.0
2015-May-28 12:32N 44°03' E 009°51'0 0.0
2015-May-28 11:32N 44°03' E 009°51'0 0.0
2015-May-28 10:33N 44°03' E 009°51'0 0.0
2015-May-28 09:33N 44°03' E 009°51'0 0.0
2015-May-28 08:33N 44°03' E 009°51'0 0.0
2015-May-28 07:33N 44°03' E 009°51'0 0.0
2015-May-28 06:33N 44°03' E 009°51'0 0.0
2015-May-28 05:33N 44°03' E 009°51'0 0.0
2015-May-28 04:33N 44°03' E 009°51'0 0.0
2015-May-28 03:33N 44°03' E 009°51'0 0.0
2015-May-28 02:33N 44°03' E 009°51'0 0.0
2015-May-28 01:33N 44°03' E 009°51'0 0.0
2015-May-28 00:33N 44°03' E 009°51'0 0.0
2015-May-27 23:33N 44°03' E 009°51'0 0.0
2015-May-27 22:33N 44°03' E 009°51'0 0.0
2015-May-27 21:33N 44°03' E 009°51'4 3.6
2015-May-27 20:33N 43°60' E 009°53'10 9.9
2015-May-27 19:33N 44°03' E 009°40'1110.8
2015-May-27 18:33N 44°10' E 009°29'1010.4
2015-May-27 17:33N 44°17' E 009°18'2 0.1
2015-May-27 01:33N 44°16' E 009°16'10 9.8
2015-May-27 00:33N 44°11' E 009°04'10 9.6
2015-May-26 23:33N 44°07' E 008°52'9 9.4
2015-May-26 22:33N 44°02' E 008°40'14 9.5
2015-May-26 21:06N 43°56' E 008°24'6 9.5
2015-May-26 20:28N 43°53' E 008°16'1011.0
2015-May-26 19:33N 43°48' E 008°04'3411.4
2015-May-26 16:32N 43°41' E 007°17'1 0.0
2015-May-25 07:26N 43°42' E 007°17'0 0.0
2015-May-24 05:33N 43°42' E 007°17'75 9.4
2015-May-23 21:33N 44°08' E 008°55'1010.0
2015-May-23 20:33N 44°12' E 009°08'11 0.7
2015-May-23 04:34N 44°14' E 009°22'8 8.2
2015-May-23 03:34N 44°09' E 009°30'9 8.8
2015-May-23 02:34N 44°03' E 009°40'9 9.1
2015-May-23 01:33N 44°01' E 009°52'2 2.4
2015-May-23 00:32N 44°03' E 009°51'0 0.0
2015-May-22 23:33N 44°03' E 009°51'0 0.0
2015-May-22 22:33N 44°03' E 009°51'0 0.0
2015-May-22 21:33N 44°03' E 009°51'0 0.0
2015-May-22 20:33N 44°03' E 009°51'0 0.0
2015-May-22 19:33N 44°03' E 009°51'0 0.0
2015-May-22 18:33N 44°03' E 009°51'0 0.0
2015-May-22 17:34N 44°03' E 009°51'0 0.0
2015-May-22 16:33N 44°03' E 009°51'0 0.0
2015-May-22 15:33N 44°03' E 009°51'0 0.0
2015-May-22 14:33N 44°03' E 009°51'0 0.0
2015-May-22 13:33N 44°03' E 009°51'0 0.0
2015-May-22 12:33N 44°03' E 009°51'0 0.0
2015-May-22 11:33N 44°03' E 009°51'0 0.0
2015-May-22 10:33N 44°03' E 009°51'0 0.0
2015-May-22 09:33N 44°03' E 009°51'0 0.0
2015-May-22 08:33N 44°03' E 009°51'0 0.0
2015-May-22 07:33N 44°03' E 009°51'0 0.0
2015-May-22 06:33N 44°03' E 009°51'0 0.0
2015-May-22 05:33N 44°03' E 009°51'0 0.0
2015-May-22 04:33N 44°03' E 009°51'0 0.0
2015-May-22 03:33N 44°03' E 009°51'0 0.0
2015-May-22 02:33N 44°03' E 009°51'0 0.0
2015-May-22 01:33N 44°03' E 009°51'0 0.0
2015-May-22 00:33N 44°03' E 009°51'0 0.0
2015-May-21 23:33N 44°03' E 009°51'0 0.0
2015-May-21 22:33N 44°03' E 009°51'0 0.0
2015-May-21 21:33N 44°03' E 009°51'0 0.0
2015-May-21 20:33N 44°03' E 009°51'0 0.0
2015-May-21 19:33N 44°03' E 009°51'0 0.0
2015-May-21 18:33N 44°03' E 009°51'0 0.0
2015-May-21 17:33N 44°03' E 009°51'0 0.1
2015-May-21 16:33N 44°03' E 009°51'0 0.0
2015-May-21 15:34N 44°03' E 009°51'0 0.0
2015-May-21 14:33N 44°03' E 009°51'0 0.0
2015-May-21 13:33N 44°03' E 009°51'0 0.1
2015-May-21 12:33N 44°03' E 009°51'8 7.9
2015-May-21 11:32N 44°02' E 010°02'0 0.0
2015-May-21 10:32N 44°02' E 010°02'0 0.0
2015-May-21 09:32N 44°02' E 010°02'0 0.0
2015-May-21 08:33N 44°02' E 010°02'0 0.0
2015-May-21 07:33N 44°02' E 010°02'0 0.0
2015-May-21 06:33N 44°02' E 010°02'0 0.0
2015-May-21 05:33N 44°02' E 010°02'0 0.0
2015-May-21 04:33N 44°02' E 010°02'0 0.0
2015-May-21 03:33N 44°02' E 010°02'0 0.0
2015-May-21 02:33N 44°02' E 010°02'0 0.0
2015-May-21 01:33N 44°02' E 010°02'0 0.0
2015-May-21 00:33N 44°02' E 010°02'0 0.0
2015-May-20 23:33N 44°02' E 010°02'0 0.0
2015-May-20 22:33N 44°02' E 010°02'0 0.0
2015-May-20 21:33N 44°02' E 010°02'0 0.0
2015-May-20 20:33N 44°02' E 010°02'0 0.0
2015-May-20 19:33N 44°02' E 010°02'0 0.0
2015-May-20 18:33N 44°02' E 010°02'0 0.0
2015-May-20 17:33N 44°02' E 010°02'0 0.0
2015-May-20 16:33N 44°02' E 010°02'0 0.0
2015-May-20 15:33N 44°02' E 010°02'0 0.0
2015-May-20 14:33N 44°02' E 010°02'0 0.0
2015-May-20 13:33N 44°02' E 010°02'0 0.0
2015-May-20 12:33N 44°02' E 010°02'0 0.0
2015-May-20 11:33N 44°02' E 010°02'0 0.0
2015-May-20 10:33N 44°02' E 010°02'0 0.0
2015-May-20 09:33N 44°02' E 010°02'0 0.0
2015-May-20 08:33N 44°02' E 010°02'0 0.0
2015-May-20 07:33N 44°02' E 010°02'0 0.0
2015-May-20 06:32N 44°02' E 010°02'0 0.0
2015-May-20 05:33N 44°02' E 010°02'0 0.0
2015-May-20 04:33N 44°02' E 010°02'0 0.0
2015-May-20 03:32N 44°02' E 010°02'0 0.0
2015-May-20 02:28N 44°02' E 010°02'0 0.0
2015-May-20 01:32N 44°02' E 010°02'0 0.0
2015-May-20 00:33N 44°02' E 010°02'0 0.0
2015-May-19 23:33N 44°02' E 010°02'0 0.0
2015-May-19 22:33N 44°02' E 010°02'0 0.0
2015-May-19 21:33N 44°02' E 010°02'10 9.5
2015-May-19 20:33N 43°53' E 010°04'1111.3
2015-May-19 19:33N 43°41' E 010°05'1111.1
2015-May-19 18:33N 43°30' E 010°07'43 2.9
2015-May-19 03:27N 42°48' E 010°20'0 0.0
2015-May-19 02:30N 42°48' E 010°20'0 0.0
2015-May-19 01:31N 42°48' E 010°20'0 0.0
2015-May-19 00:33N 42°48' E 010°20'0 0.0
2015-May-18 23:32N 42°48' E 010°20'0 0.0
2015-May-18 22:19N 42°48' E 010°20'0 0.0
2015-May-18 21:30N 42°48' E 010°20'0 0.0
2015-May-18 20:33N 42°48' E 010°20'9 9.1
2015-May-18 19:33N 42°57' E 010°19'1010.2
2015-May-18 18:33N 43°07' E 010°17'1010.1
2015-May-18 17:33N 43°17' E 010°15'1010.1
2015-May-18 16:33N 43°27' E 010°14'6 6.3
2015-May-18 15:33N 43°33' E 010°18'0 0.0
2015-May-18 14:27N 43°33' E 010°18'  

Dump ship's entire track history